sensor_id;sensor_type;location;lat;lon;timestamp;P1;durP1;ratioP1;P2;durP2;ratioP2
13566;SDS011;6855;48.112;11.298;2023-02-28T00:01:04;4.25;;;2.40;;
13566;SDS011;6855;48.112;11.298;2023-02-28T00:03:31;4.95;;;2.00;;
13566;SDS011;6855;48.112;11.298;2023-02-28T00:06:00;3.15;;;2.20;;
13566;SDS011;6855;48.112;11.298;2023-02-28T00:08:27;3.60;;;2.58;;
13566;SDS011;6855;48.112;11.298;2023-02-28T00:10:56;3.50;;;2.45;;
13566;SDS011;6855;48.112;11.298;2023-02-28T00:13:23;5.32;;;2.40;;
13566;SDS011;6855;48.112;11.298;2023-02-28T00:15:58;2.00;;;1.77;;
13566;SDS011;6855;48.112;11.298;2023-02-28T00:18:25;4.68;;;2.45;;
13566;SDS011;6855;48.112;11.298;2023-02-28T00:20:52;4.32;;;2.15;;
13566;SDS011;6855;48.112;11.298;2023-02-28T00:23:20;5.78;;;2.75;;
13566;SDS011;6855;48.112;11.298;2023-02-28T00:25:47;6.53;;;2.40;;
13566;SDS011;6855;48.112;11.298;2023-02-28T00:28:16;3.08;;;2.22;;
13566;SDS011;6855;48.112;11.298;2023-02-28T00:30:43;3.40;;;2.47;;
13566;SDS011;6855;48.112;11.298;2023-02-28T00:33:10;2.47;;;1.90;;
13566;SDS011;6855;48.112;11.298;2023-02-28T00:35:37;6.05;;;2.45;;
13566;SDS011;6855;48.112;11.298;2023-02-28T00:38:04;3.63;;;2.22;;
13566;SDS011;6855;48.112;11.298;2023-02-28T00:40:31;3.92;;;2.05;;
13566;SDS011;6855;48.112;11.298;2023-02-28T00:42:59;2.60;;;2.00;;
13566;SDS011;6855;48.112;11.298;2023-02-28T00:45:28;6.40;;;2.35;;
13566;SDS011;6855;48.112;11.298;2023-02-28T00:47:56;4.80;;;2.20;;
13566;SDS011;6855;48.112;11.298;2023-02-28T00:50:23;3.97;;;2.30;;
13566;SDS011;6855;48.112;11.298;2023-02-28T00:52:50;5.20;;;2.42;;
13566;SDS011;6855;48.112;11.298;2023-02-28T00:55:17;4.65;;;2.70;;
13566;SDS011;6855;48.112;11.298;2023-02-28T00:57:44;3.10;;;2.10;;
13566;SDS011;6855;48.112;11.298;2023-02-28T01:00:12;2.92;;;2.50;;
13566;SDS011;6855;48.112;11.298;2023-02-28T01:02:40;4.45;;;2.53;;
13566;SDS011;6855;48.112;11.298;2023-02-28T01:05:08;5.65;;;2.30;;
13566;SDS011;6855;48.112;11.298;2023-02-28T01:07:35;7.40;;;3.00;;
13566;SDS011;6855;48.112;11.298;2023-02-28T01:10:03;5.18;;;2.22;;
13566;SDS011;6855;48.112;11.298;2023-02-28T01:12:30;4.85;;;2.53;;
13566;SDS011;6855;48.112;11.298;2023-02-28T01:14:58;4.50;;;2.50;;
13566;SDS011;6855;48.112;11.298;2023-02-28T01:17:25;2.47;;;2.13;;
13566;SDS011;6855;48.112;11.298;2023-02-28T01:19:54;4.60;;;3.00;;
13566;SDS011;6855;48.112;11.298;2023-02-28T01:22:21;4.63;;;2.47;;
13566;SDS011;6855;48.112;11.298;2023-02-28T01:24:48;2.78;;;2.25;;
13566;SDS011;6855;48.112;11.298;2023-02-28T01:27:15;3.97;;;2.42;;
13566;SDS011;6855;48.112;11.298;2023-02-28T01:29:43;5.38;;;2.75;;
13566;SDS011;6855;48.112;11.298;2023-02-28T01:32:10;3.33;;;2.70;;
13566;SDS011;6855;48.112;11.298;2023-02-28T01:34:37;5.35;;;2.97;;
13566;SDS011;6855;48.112;11.298;2023-02-28T01:37:05;6.05;;;2.50;;
13566;SDS011;6855;48.112;11.298;2023-02-28T01:39:33;3.63;;;2.47;;
13566;SDS011;6855;48.112;11.298;2023-02-28T01:42:00;6.03;;;2.38;;
13566;SDS011;6855;48.112;11.298;2023-02-28T01:47:12;4.75;;;2.60;;
13566;SDS011;6855;48.112;11.298;2023-02-28T01:49:40;3.85;;;2.42;;
13566;SDS011;6855;48.112;11.298;2023-02-28T01:52:08;2.20;;;2.00;;
13566;SDS011;6855;48.112;11.298;2023-02-28T01:54:39;3.22;;;2.35;;
13566;SDS011;6855;48.112;11.298;2023-02-28T01:57:10;3.47;;;2.88;;
13566;SDS011;6855;48.112;11.298;2023-02-28T01:59:39;5.05;;;2.47;;
13566;SDS011;6855;48.112;11.298;2023-02-28T02:02:11;6.45;;;2.45;;
13566;SDS011;6855;48.112;11.298;2023-02-28T02:04:39;4.50;;;3.00;;
13566;SDS011;6855;48.112;11.298;2023-02-28T02:07:07;4.25;;;2.65;;
13566;SDS011;6855;48.112;11.298;2023-02-28T02:09:36;5.03;;;2.70;;
13566;SDS011;6855;48.112;11.298;2023-02-28T02:12:06;4.38;;;3.10;;
13566;SDS011;6855;48.112;11.298;2023-02-28T02:14:38;4.72;;;2.30;;
13566;SDS011;6855;48.112;11.298;2023-02-28T02:17:10;6.72;;;2.70;;
13566;SDS011;6855;48.112;11.298;2023-02-28T02:22:35;3.50;;;2.13;;
13566;SDS011;6855;48.112;11.298;2023-02-28T02:25:17;4.25;;;2.83;;
13566;SDS011;6855;48.112;11.298;2023-02-28T02:27:57;3.92;;;2.65;;
13566;SDS011;6855;48.112;11.298;2023-02-28T02:30:49;6.18;;;2.88;;
13566;SDS011;6855;48.112;11.298;2023-02-28T02:36:06;9.18;;;3.30;;
13566;SDS011;6855;48.112;11.298;2023-02-28T02:38:34;3.55;;;2.53;;
13566;SDS011;6855;48.112;11.298;2023-02-28T02:41:04;3.10;;;2.60;;
13566;SDS011;6855;48.112;11.298;2023-02-28T02:43:35;4.78;;;2.95;;
13566;SDS011;6855;48.112;11.298;2023-02-28T02:46:04;5.70;;;3.10;;
13566;SDS011;6855;48.112;11.298;2023-02-28T02:48:33;4.40;;;2.55;;
13566;SDS011;6855;48.112;11.298;2023-02-28T02:51:01;7.07;;;3.30;;
13566;SDS011;6855;48.112;11.298;2023-02-28T02:53:33;4.63;;;2.65;;
13566;SDS011;6855;48.112;11.298;2023-02-28T02:56:02;3.58;;;2.67;;
13566;SDS011;6855;48.112;11.298;2023-02-28T02:58:31;4.93;;;2.60;;
13566;SDS011;6855;48.112;11.298;2023-02-28T03:01:00;4.78;;;3.17;;
13566;SDS011;6855;48.112;11.298;2023-02-28T03:03:28;3.95;;;2.50;;
13566;SDS011;6855;48.112;11.298;2023-02-28T03:05:57;8.48;;;2.88;;
13566;SDS011;6855;48.112;11.298;2023-02-28T03:08:25;6.07;;;3.08;;
13566;SDS011;6855;48.112;11.298;2023-02-28T03:10:56;5.55;;;2.55;;
13566;SDS011;6855;48.112;11.298;2023-02-28T03:13:37;3.75;;;2.75;;
13566;SDS011;6855;48.112;11.298;2023-02-28T03:16:24;4.32;;;2.78;;
13566;SDS011;6855;48.112;11.298;2023-02-28T03:18:54;5.20;;;3.05;;
13566;SDS011;6855;48.112;11.298;2023-02-28T03:21:26;5.45;;;2.45;;
13566;SDS011;6855;48.112;11.298;2023-02-28T03:23:58;7.78;;;2.80;;
13566;SDS011;6855;48.112;11.298;2023-02-28T03:26:31;4.13;;;2.45;;
13566;SDS011;6855;48.112;11.298;2023-02-28T03:29:02;3.60;;;2.75;;
13566;SDS011;6855;48.112;11.298;2023-02-28T03:31:31;4.38;;;3.03;;
13566;SDS011;6855;48.112;11.298;2023-02-28T03:34:01;3.25;;;2.22;;
13566;SDS011;6855;48.112;11.298;2023-02-28T03:36:32;6.85;;;2.90;;
13566;SDS011;6855;48.112;11.298;2023-02-28T03:39:02;6.30;;;3.85;;
13566;SDS011;6855;48.112;11.298;2023-02-28T03:41:32;5.50;;;3.10;;
13566;SDS011;6855;48.112;11.298;2023-02-28T03:44:04;3.15;;;2.40;;
13566;SDS011;6855;48.112;11.298;2023-02-28T03:46:33;6.00;;;2.72;;
13566;SDS011;6855;48.112;11.298;2023-02-28T03:49:03;6.57;;;3.45;;
13566;SDS011;6855;48.112;11.298;2023-02-28T03:51:32;6.60;;;2.85;;
13566;SDS011;6855;48.112;11.298;2023-02-28T03:54:02;5.72;;;3.80;;
13566;SDS011;6855;48.112;11.298;2023-02-28T03:56:34;5.65;;;3.25;;
13566;SDS011;6855;48.112;11.298;2023-02-28T03:59:04;3.28;;;2.78;;
13566;SDS011;6855;48.112;11.298;2023-02-28T04:01:35;7.15;;;3.67;;
13566;SDS011;6855;48.112;11.298;2023-02-28T04:04:03;9.18;;;3.20;;
13566;SDS011;6855;48.112;11.298;2023-02-28T04:06:30;3.92;;;2.95;;
13566;SDS011;6855;48.112;11.298;2023-02-28T04:08:58;7.90;;;3.72;;
13566;SDS011;6855;48.112;11.298;2023-02-28T04:11:27;7.22;;;3.47;;
13566;SDS011;6855;48.112;11.298;2023-02-28T04:13:58;3.42;;;2.92;;
13566;SDS011;6855;48.112;11.298;2023-02-28T04:16:25;5.85;;;3.72;;
13566;SDS011;6855;48.112;11.298;2023-02-28T04:18:52;6.22;;;2.88;;
13566;SDS011;6855;48.112;11.298;2023-02-28T04:21:27;4.80;;;3.05;;
13566;SDS011;6855;48.112;11.298;2023-02-28T04:23:54;5.15;;;2.90;;
13566;SDS011;6855;48.112;11.298;2023-02-28T04:26:25;5.05;;;3.22;;
13566;SDS011;6855;48.112;11.298;2023-02-28T04:28:54;7.05;;;3.33;;
13566;SDS011;6855;48.112;11.298;2023-02-28T04:31:23;6.90;;;3.65;;
13566;SDS011;6855;48.112;11.298;2023-02-28T04:33:50;6.32;;;3.45;;
13566;SDS011;6855;48.112;11.298;2023-02-28T04:36:18;7.25;;;3.40;;
13566;SDS011;6855;48.112;11.298;2023-02-28T04:38:45;8.27;;;4.00;;
13566;SDS011;6855;48.112;11.298;2023-02-28T04:41:13;6.60;;;3.20;;
13566;SDS011;6855;48.112;11.298;2023-02-28T04:43:40;5.65;;;3.72;;
13566;SDS011;6855;48.112;11.298;2023-02-28T04:46:07;6.30;;;3.90;;
13566;SDS011;6855;48.112;11.298;2023-02-28T04:48:37;8.10;;;3.67;;
13566;SDS011;6855;48.112;11.298;2023-02-28T04:51:06;6.03;;;4.05;;
13566;SDS011;6855;48.112;11.298;2023-02-28T04:53:33;8.20;;;4.60;;
13566;SDS011;6855;48.112;11.298;2023-02-28T04:56:00;7.38;;;4.45;;
13566;SDS011;6855;48.112;11.298;2023-02-28T04:58:28;5.15;;;3.63;;
13566;SDS011;6855;48.112;11.298;2023-02-28T05:01:00;6.13;;;4.00;;
13566;SDS011;6855;48.112;11.298;2023-02-28T05:03:28;11.07;;;4.05;;
13566;SDS011;6855;48.112;11.298;2023-02-28T05:05:56;6.53;;;4.38;;
13566;SDS011;6855;48.112;11.298;2023-02-28T05:08:23;6.35;;;3.67;;
13566;SDS011;6855;48.112;11.298;2023-02-28T05:10:50;6.63;;;4.20;;
13566;SDS011;6855;48.112;11.298;2023-02-28T05:13:18;6.13;;;4.25;;
13566;SDS011;6855;48.112;11.298;2023-02-28T05:15:45;10.18;;;4.60;;
13566;SDS011;6855;48.112;11.298;2023-02-28T05:18:12;8.80;;;4.70;;
13566;SDS011;6855;48.112;11.298;2023-02-28T05:20:39;12.63;;;4.35;;
13566;SDS011;6855;48.112;11.298;2023-02-28T05:23:09;8.27;;;5.32;;
13566;SDS011;6855;48.112;11.298;2023-02-28T05:25:38;7.82;;;4.00;;
13566;SDS011;6855;48.112;11.298;2023-02-28T05:28:05;9.23;;;5.13;;
13566;SDS011;6855;48.112;11.298;2023-02-28T05:30:33;6.32;;;3.90;;
13566;SDS011;6855;48.112;11.298;2023-02-28T05:33:00;11.23;;;5.50;;
13566;SDS011;6855;48.112;11.298;2023-02-28T05:35:28;10.10;;;5.05;;
13566;SDS011;6855;48.112;11.298;2023-02-28T05:37:55;12.20;;;5.15;;
13566;SDS011;6855;48.112;11.298;2023-02-28T05:40:23;11.27;;;5.38;;
13566;SDS011;6855;48.112;11.298;2023-02-28T05:42:50;8.73;;;4.95;;
13566;SDS011;6855;48.112;11.298;2023-02-28T05:45:18;10.48;;;5.90;;
13566;SDS011;6855;48.112;11.298;2023-02-28T05:47:45;11.38;;;5.07;;
13566;SDS011;6855;48.112;11.298;2023-02-28T05:50:12;13.23;;;5.63;;
13566;SDS011;6855;48.112;11.298;2023-02-28T05:52:39;10.35;;;5.00;;
13566;SDS011;6855;48.112;11.298;2023-02-28T05:55:07;10.88;;;5.35;;
13566;SDS011;6855;48.112;11.298;2023-02-28T05:57:36;8.15;;;4.90;;
13566;SDS011;6855;48.112;11.298;2023-02-28T06:00:03;8.88;;;6.18;;
13566;SDS011;6855;48.112;11.298;2023-02-28T06:02:30;11.10;;;6.60;;
13566;SDS011;6855;48.112;11.298;2023-02-28T06:04:58;9.63;;;5.55;;
13566;SDS011;6855;48.112;11.298;2023-02-28T06:07:25;13.45;;;8.10;;
13566;SDS011;6855;48.112;11.298;2023-02-28T06:09:52;14.88;;;9.13;;
13566;SDS011;6855;48.112;11.298;2023-02-28T06:12:19;13.70;;;8.30;;
13566;SDS011;6855;48.112;11.298;2023-02-28T06:14:48;12.70;;;6.93;;
13566;SDS011;6855;48.112;11.298;2023-02-28T06:17:15;14.32;;;7.15;;
13566;SDS011;6855;48.112;11.298;2023-02-28T06:19:42;16.40;;;7.78;;
13566;SDS011;6855;48.112;11.298;2023-02-28T06:22:09;13.73;;;6.80;;
13566;SDS011;6855;48.112;11.298;2023-02-28T06:24:36;10.93;;;6.90;;
13566;SDS011;6855;48.112;11.298;2023-02-28T06:27:03;11.75;;;6.22;;
13566;SDS011;6855;48.112;11.298;2023-02-28T06:29:31;13.10;;;7.35;;
13566;SDS011;6855;48.112;11.298;2023-02-28T06:31:59;12.40;;;7.88;;
13566;SDS011;6855;48.112;11.298;2023-02-28T06:34:26;13.35;;;7.57;;
13566;SDS011;6855;48.112;11.298;2023-02-28T06:36:54;12.57;;;7.75;;
13566;SDS011;6855;48.112;11.298;2023-02-28T06:39:21;15.25;;;8.82;;
13566;SDS011;6855;48.112;11.298;2023-02-28T06:41:48;10.27;;;6.95;;
13566;SDS011;6855;48.112;11.298;2023-02-28T06:44:17;13.32;;;8.05;;
13566;SDS011;6855;48.112;11.298;2023-02-28T06:46:44;11.43;;;6.97;;
13566;SDS011;6855;48.112;11.298;2023-02-28T06:49:13;15.43;;;8.05;;
13566;SDS011;6855;48.112;11.298;2023-02-28T06:51:42;13.82;;;7.00;;
13566;SDS011;6855;48.112;11.298;2023-02-28T06:54:10;9.32;;;7.03;;
13566;SDS011;6855;48.112;11.298;2023-02-28T06:56:37;12.07;;;7.10;;
13566;SDS011;6855;48.112;11.298;2023-02-28T06:59:04;11.80;;;8.13;;
13566;SDS011;6855;48.112;11.298;2023-02-28T07:01:31;13.75;;;8.40;;
13566;SDS011;6855;48.112;11.298;2023-02-28T07:03:59;14.00;;;7.03;;
13566;SDS011;6855;48.112;11.298;2023-02-28T07:06:28;13.90;;;7.82;;
13566;SDS011;6855;48.112;11.298;2023-02-28T07:08:55;11.68;;;7.28;;
13566;SDS011;6855;48.112;11.298;2023-02-28T07:11:23;12.80;;;8.17;;
13566;SDS011;6855;48.112;11.298;2023-02-28T07:13:51;14.27;;;7.70;;
13566;SDS011;6855;48.112;11.298;2023-02-28T07:16:18;15.20;;;8.03;;
13566;SDS011;6855;48.112;11.298;2023-02-28T07:18:45;17.00;;;8.00;;
13566;SDS011;6855;48.112;11.298;2023-02-28T07:21:13;15.30;;;8.50;;
13566;SDS011;6855;48.112;11.298;2023-02-28T07:23:41;12.93;;;7.70;;
13566;SDS011;6855;48.112;11.298;2023-02-28T07:26:11;17.35;;;8.85;;
13566;SDS011;6855;48.112;11.298;2023-02-28T07:28:39;15.07;;;8.10;;
13566;SDS011;6855;48.112;11.298;2023-02-28T07:31:07;14.00;;;8.05;;
13566;SDS011;6855;48.112;11.298;2023-02-28T07:33:35;15.80;;;8.97;;
13566;SDS011;6855;48.112;11.298;2023-02-28T07:36:03;14.80;;;7.50;;
13566;SDS011;6855;48.112;11.298;2023-02-28T07:38:30;10.30;;;6.85;;
13566;SDS011;6855;48.112;11.298;2023-02-28T07:40:58;14.20;;;8.43;;
13566;SDS011;6855;48.112;11.298;2023-02-28T07:43:26;11.95;;;7.95;;
13566;SDS011;6855;48.112;11.298;2023-02-28T07:45:53;13.10;;;7.72;;
13566;SDS011;6855;48.112;11.298;2023-02-28T07:48:20;7.00;;;5.03;;
13566;SDS011;6855;48.112;11.298;2023-02-28T07:50:53;12.10;;;7.47;;
13566;SDS011;6855;48.112;11.298;2023-02-28T07:53:21;11.47;;;7.53;;
13566;SDS011;6855;48.112;11.298;2023-02-28T07:55:48;13.17;;;7.43;;
13566;SDS011;6855;48.112;11.298;2023-02-28T07:58:21;14.10;;;8.23;;
13566;SDS011;6855;48.112;11.298;2023-02-28T08:00:48;12.07;;;7.27;;
13566;SDS011;6855;48.112;11.298;2023-02-28T08:03:16;12.90;;;7.83;;
13566;SDS011;6855;48.112;11.298;2023-02-28T08:05:44;13.20;;;7.83;;
13566;SDS011;6855;48.112;11.298;2023-02-28T08:08:11;16.90;;;8.87;;
13566;SDS011;6855;48.112;11.298;2023-02-28T08:10:38;18.27;;;9.17;;
13566;SDS011;6855;48.112;11.298;2023-02-28T08:13:05;12.80;;;7.00;;
13566;SDS011;6855;48.112;11.298;2023-02-28T08:15:34;14.63;;;8.48;;
13566;SDS011;6855;48.112;11.298;2023-02-28T08:18:01;15.00;;;8.50;;
13566;SDS011;6855;48.112;11.298;2023-02-28T08:20:28;15.70;;;8.67;;
13566;SDS011;6855;48.112;11.298;2023-02-28T08:22:55;13.20;;;7.60;;
13566;SDS011;6855;48.112;11.298;2023-02-28T08:25:22;12.60;;;8.23;;
13566;SDS011;6855;48.112;11.298;2023-02-28T08:27:50;15.83;;;8.60;;
13566;SDS011;6855;48.112;11.298;2023-02-28T08:30:18;13.77;;;8.40;;
13566;SDS011;6855;48.112;11.298;2023-02-28T08:32:46;14.90;;;8.77;;
13566;SDS011;6855;48.112;11.298;2023-02-28T08:35:13;12.40;;;7.20;;
13566;SDS011;6855;48.112;11.298;2023-02-28T08:37:40;12.13;;;7.73;;
13566;SDS011;6855;48.112;11.298;2023-02-28T08:40:08;14.20;;;8.67;;
13566;SDS011;6855;48.112;11.298;2023-02-28T08:42:35;14.17;;;8.97;;
13566;SDS011;6855;48.112;11.298;2023-02-28T08:45:03;15.40;;;8.17;;
13566;SDS011;6855;48.112;11.298;2023-02-28T08:47:30;15.07;;;8.97;;
13566;SDS011;6855;48.112;11.298;2023-02-28T08:49:59;13.73;;;8.57;;
13566;SDS011;6855;48.112;11.298;2023-02-28T08:52:26;15.27;;;8.80;;
13566;SDS011;6855;48.112;11.298;2023-02-28T08:54:53;14.70;;;8.20;;
13566;SDS011;6855;48.112;11.298;2023-02-28T08:57:20;13.73;;;8.40;;
13566;SDS011;6855;48.112;11.298;2023-02-28T08:59:47;10.60;;;7.53;;
13566;SDS011;6855;48.112;11.298;2023-02-28T09:02:14;19.23;;;8.83;;
13566;SDS011;6855;48.112;11.298;2023-02-28T09:04:42;12.70;;;7.90;;
13566;SDS011;6855;48.112;11.298;2023-02-28T09:07:11;13.37;;;7.73;;
13566;SDS011;6855;48.112;11.298;2023-02-28T09:09:39;13.30;;;8.30;;
13566;SDS011;6855;48.112;11.298;2023-02-28T09:12:18;10.50;;;7.67;;
13566;SDS011;6855;48.112;11.298;2023-02-28T09:14:45;13.57;;;7.87;;
13566;SDS011;6855;48.112;11.298;2023-02-28T09:17:12;15.87;;;8.37;;
13566;SDS011;6855;48.112;11.298;2023-02-28T09:19:40;16.13;;;9.67;;
13566;SDS011;6855;48.112;11.298;2023-02-28T09:22:07;18.43;;;8.37;;
13566;SDS011;6855;48.112;11.298;2023-02-28T09:24:36;14.90;;;8.30;;
13566;SDS011;6855;48.112;11.298;2023-02-28T09:27:03;14.43;;;8.33;;
13566;SDS011;6855;48.112;11.298;2023-02-28T09:29:31;17.97;;;7.80;;
13566;SDS011;6855;48.112;11.298;2023-02-28T09:31:59;21.33;;;9.30;;
13566;SDS011;6855;48.112;11.298;2023-02-28T09:34:26;12.17;;;8.50;;
13566;SDS011;6855;48.112;11.298;2023-02-28T09:36:55;13.17;;;8.17;;
13566;SDS011;6855;48.112;11.298;2023-02-28T09:39:23;14.10;;;9.13;;
13566;SDS011;6855;48.112;11.298;2023-02-28T09:41:53;16.37;;;8.07;;
13566;SDS011;6855;48.112;11.298;2023-02-28T09:44:23;13.43;;;8.10;;
13566;SDS011;6855;48.112;11.298;2023-02-28T09:46:53;13.13;;;8.63;;
13566;SDS011;6855;48.112;11.298;2023-02-28T09:49:22;15.50;;;8.37;;
13566;SDS011;6855;48.112;11.298;2023-02-28T09:51:51;14.43;;;8.20;;
13566;SDS011;6855;48.112;11.298;2023-02-28T09:54:22;12.33;;;7.77;;
13566;SDS011;6855;48.112;11.298;2023-02-28T09:56:50;16.70;;;9.20;;
13566;SDS011;6855;48.112;11.298;2023-02-28T09:59:35;17.53;;;8.73;;
13566;SDS011;6855;48.112;11.298;2023-02-28T10:02:04;14.43;;;8.97;;
13566;SDS011;6855;48.112;11.298;2023-02-28T10:04:37;18.23;;;11.00;;
13566;SDS011;6855;48.112;11.298;2023-02-28T10:07:11;20.07;;;10.27;;
13566;SDS011;6855;48.112;11.298;2023-02-28T10:09:43;16.40;;;9.43;;
13566;SDS011;6855;48.112;11.298;2023-02-28T10:12:12;16.50;;;9.17;;
13566;SDS011;6855;48.112;11.298;2023-02-28T10:14:42;15.70;;;8.83;;
13566;SDS011;6855;48.112;11.298;2023-02-28T10:17:12;11.63;;;8.77;;
13566;SDS011;6855;48.112;11.298;2023-02-28T10:19:41;14.90;;;8.70;;
13566;SDS011;6855;48.112;11.298;2023-02-28T10:22:10;12.80;;;8.70;;
13566;SDS011;6855;48.112;11.298;2023-02-28T10:24:39;14.23;;;8.80;;
13566;SDS011;6855;48.112;11.298;2023-02-28T10:27:12;12.67;;;8.47;;
13566;SDS011;6855;48.112;11.298;2023-02-28T10:29:42;13.63;;;9.17;;
13566;SDS011;6855;48.112;11.298;2023-02-28T10:32:10;14.60;;;8.10;;
13566;SDS011;6855;48.112;11.298;2023-02-28T10:34:39;14.63;;;8.20;;
13566;SDS011;6855;48.112;11.298;2023-02-28T10:37:06;15.93;;;9.03;;
13566;SDS011;6855;48.112;11.298;2023-02-28T10:39:35;12.47;;;8.60;;
13566;SDS011;6855;48.112;11.298;2023-02-28T10:42:02;14.47;;;9.47;;
13566;SDS011;6855;48.112;11.298;2023-02-28T10:44:30;15.30;;;8.87;;
13566;SDS011;6855;48.112;11.298;2023-02-28T10:46:58;15.83;;;9.63;;
13566;SDS011;6855;48.112;11.298;2023-02-28T10:49:27;15.37;;;10.00;;
13566;SDS011;6855;48.112;11.298;2023-02-28T10:51:55;14.83;;;8.67;;
13566;SDS011;6855;48.112;11.298;2023-02-28T10:54:23;15.20;;;9.20;;
13566;SDS011;6855;48.112;11.298;2023-02-28T10:57:08;15.40;;;8.93;;
13566;SDS011;6855;48.112;11.298;2023-02-28T10:59:35;12.70;;;8.93;;
13566;SDS011;6855;48.112;11.298;2023-02-28T11:02:08;17.00;;;10.00;;
13566;SDS011;6855;48.112;11.298;2023-02-28T11:04:55;14.87;;;9.20;;
13566;SDS011;6855;48.112;11.298;2023-02-28T11:07:22;10.87;;;6.60;;
13566;SDS011;6855;48.112;11.298;2023-02-28T11:09:50;17.47;;;10.47;;
13566;SDS011;6855;48.112;11.298;2023-02-28T11:12:22;17.97;;;9.03;;
13566;SDS011;6855;48.112;11.298;2023-02-28T11:14:51;16.90;;;8.60;;
13566;SDS011;6855;48.112;11.298;2023-02-28T11:17:21;15.30;;;9.33;;
13566;SDS011;6855;48.112;11.298;2023-02-28T11:19:49;14.23;;;8.83;;
13566;SDS011;6855;48.112;11.298;2023-02-28T11:22:18;12.10;;;7.90;;
13566;SDS011;6855;48.112;11.298;2023-02-28T11:24:46;15.87;;;8.10;;
13566;SDS011;6855;48.112;11.298;2023-02-28T11:27:42;21.27;;;9.50;;
13566;SDS011;6855;48.112;11.298;2023-02-28T11:32:55;14.33;;;8.70;;
13566;SDS011;6855;48.112;11.298;2023-02-28T11:35:23;12.07;;;8.70;;
13566;SDS011;6855;48.112;11.298;2023-02-28T11:37:51;13.57;;;7.60;;
13566;SDS011;6855;48.112;11.298;2023-02-28T11:40:19;9.83;;;7.30;;
13566;SDS011;6855;48.112;11.298;2023-02-28T11:42:50;23.93;;;8.27;;
13566;SDS011;6855;48.112;11.298;2023-02-28T11:45:27;8.60;;;6.83;;
13566;SDS011;6855;48.112;11.298;2023-02-28T11:48:00;16.90;;;7.83;;
13566;SDS011;6855;48.112;11.298;2023-02-28T11:50:40;10.40;;;7.50;;
13566;SDS011;6855;48.112;11.298;2023-02-28T11:53:11;14.33;;;7.60;;
13566;SDS011;6855;48.112;11.298;2023-02-28T11:55:39;9.47;;;6.87;;
13566;SDS011;6855;48.112;11.298;2023-02-28T11:58:17;10.07;;;7.47;;
13566;SDS011;6855;48.112;11.298;2023-02-28T12:00:54;13.20;;;7.90;;
13566;SDS011;6855;48.112;11.298;2023-02-28T12:03:27;19.83;;;7.80;;
13566;SDS011;6855;48.112;11.298;2023-02-28T12:06:01;13.90;;;8.30;;
13566;SDS011;6855;48.112;11.298;2023-02-28T12:08:36;10.80;;;8.50;;
13566;SDS011;6855;48.112;11.298;2023-02-28T12:11:10;12.97;;;7.50;;
13566;SDS011;6855;48.112;11.298;2023-02-28T12:13:43;14.30;;;7.77;;
13566;SDS011;6855;48.112;11.298;2023-02-28T12:19:05;9.80;;;7.47;;
13566;SDS011;6855;48.112;11.298;2023-02-28T12:21:37;10.10;;;8.10;;
13566;SDS011;6855;48.112;11.298;2023-02-28T12:24:14;11.10;;;7.93;;
13566;SDS011;6855;48.112;11.298;2023-02-28T12:26:44;11.10;;;7.60;;
13566;SDS011;6855;48.112;11.298;2023-02-28T12:29:14;11.67;;;8.20;;
13566;SDS011;6855;48.112;11.298;2023-02-28T12:31:44;9.67;;;8.23;;
13566;SDS011;6855;48.112;11.298;2023-02-28T12:34:15;10.50;;;8.63;;
13566;SDS011;6855;48.112;11.298;2023-02-28T12:36:43;11.23;;;8.60;;
13566;SDS011;6855;48.112;11.298;2023-02-28T12:39:12;10.23;;;7.57;;
13566;SDS011;6855;48.112;11.298;2023-02-28T12:41:41;11.50;;;7.40;;
13566;SDS011;6855;48.112;11.298;2023-02-28T12:44:09;12.17;;;8.03;;
13566;SDS011;6855;48.112;11.298;2023-02-28T12:46:39;9.80;;;7.87;;
13566;SDS011;6855;48.112;11.298;2023-02-28T12:49:09;12.73;;;7.80;;
13566;SDS011;6855;48.112;11.298;2023-02-28T12:51:39;11.67;;;7.67;;
13566;SDS011;6855;48.112;11.298;2023-02-28T12:54:12;11.17;;;8.00;;
13566;SDS011;6855;48.112;11.298;2023-02-28T12:56:43;10.30;;;7.93;;
13566;SDS011;6855;48.112;11.298;2023-02-28T12:59:13;11.60;;;8.20;;
13566;SDS011;6855;48.112;11.298;2023-02-28T13:02:00;10.30;;;7.73;;
13566;SDS011;6855;48.112;11.298;2023-02-28T13:04:42;10.50;;;7.20;;
13566;SDS011;6855;48.112;11.298;2023-02-28T13:07:19;12.37;;;8.90;;
13566;SDS011;6855;48.112;11.298;2023-02-28T13:09:51;22.30;;;7.70;;
13566;SDS011;6855;48.112;11.298;2023-02-28T13:12:19;12.97;;;9.27;;
13566;SDS011;6855;48.112;11.298;2023-02-28T13:14:48;11.47;;;8.30;;
13566;SDS011;6855;48.112;11.298;2023-02-28T13:17:17;12.63;;;8.33;;
13566;SDS011;6855;48.112;11.298;2023-02-28T13:19:45;9.70;;;7.23;;
13566;SDS011;6855;48.112;11.298;2023-02-28T13:22:17;10.97;;;8.30;;
13566;SDS011;6855;48.112;11.298;2023-02-28T13:24:47;10.10;;;7.60;;
13566;SDS011;6855;48.112;11.298;2023-02-28T13:29:59;11.30;;;7.67;;
13566;SDS011;6855;48.112;11.298;2023-02-28T13:40:50;10.50;;;7.90;;
13566;SDS011;6855;48.112;11.298;2023-02-28T13:43:17;11.07;;;8.00;;
13566;SDS011;6855;48.112;11.298;2023-02-28T13:46:05;15.10;;;9.03;;
13566;SDS011;6855;48.112;11.298;2023-02-28T13:48:33;13.83;;;7.87;;
13566;SDS011;6855;48.112;11.298;2023-02-28T13:51:00;12.63;;;8.60;;
13566;SDS011;6855;48.112;11.298;2023-02-28T13:53:51;11.10;;;7.80;;
13566;SDS011;6855;48.112;11.298;2023-02-28T13:56:25;11.97;;;7.47;;
13566;SDS011;6855;48.112;11.298;2023-02-28T13:58:54;12.93;;;7.63;;
13566;SDS011;6855;48.112;11.298;2023-02-28T14:01:31;14.30;;;8.87;;
13566;SDS011;6855;48.112;11.298;2023-02-28T14:04:14;12.40;;;7.83;;
13566;SDS011;6855;48.112;11.298;2023-02-28T14:06:47;10.53;;;7.37;;
13566;SDS011;6855;48.112;11.298;2023-02-28T14:09:17;14.77;;;8.67;;
13566;SDS011;6855;48.112;11.298;2023-02-28T14:11:47;13.47;;;7.73;;
13566;SDS011;6855;48.112;11.298;2023-02-28T14:17:36;11.30;;;7.87;;
13566;SDS011;6855;48.112;11.298;2023-02-28T14:19:55;14.37;;;8.40;;
13566;SDS011;6855;48.112;11.298;2023-02-28T14:22:45;13.23;;;7.40;;
13566;SDS011;6855;48.112;11.298;2023-02-28T14:25:18;11.93;;;7.60;;
13566;SDS011;6855;48.112;11.298;2023-02-28T14:27:53;10.90;;;7.37;;
13566;SDS011;6855;48.112;11.298;2023-02-28T14:33:13;12.97;;;8.60;;
13566;SDS011;6855;48.112;11.298;2023-02-28T14:35:49;11.57;;;7.50;;
13566;SDS011;6855;48.112;11.298;2023-02-28T14:38:19;9.67;;;7.10;;
13566;SDS011;6855;48.112;11.298;2023-02-28T14:40:47;12.60;;;7.57;;
13566;SDS011;6855;48.112;11.298;2023-02-28T14:43:20;12.40;;;8.10;;
13566;SDS011;6855;48.112;11.298;2023-02-28T14:45:50;14.93;;;8.20;;
13566;SDS011;6855;48.112;11.298;2023-02-28T14:48:18;10.47;;;7.60;;
13566;SDS011;6855;48.112;11.298;2023-02-28T14:50:49;11.60;;;7.47;;
13566;SDS011;6855;48.112;11.298;2023-02-28T14:53:20;9.37;;;6.90;;
13566;SDS011;6855;48.112;11.298;2023-02-28T14:55:49;9.83;;;6.83;;
13566;SDS011;6855;48.112;11.298;2023-02-28T14:58:23;11.60;;;7.17;;
13566;SDS011;6855;48.112;11.298;2023-02-28T15:00:54;12.13;;;7.13;;
13566;SDS011;6855;48.112;11.298;2023-02-28T15:03:30;12.03;;;7.00;;
13566;SDS011;6855;48.112;11.298;2023-02-28T15:06:01;10.80;;;7.93;;
13566;SDS011;6855;48.112;11.298;2023-02-28T15:08:28;11.40;;;7.27;;
13566;SDS011;6855;48.112;11.298;2023-02-28T15:11:04;15.83;;;7.57;;
13566;SDS011;6855;48.112;11.298;2023-02-28T15:13:36;15.80;;;7.53;;
13566;SDS011;6855;48.112;11.298;2023-02-28T15:16:20;10.30;;;6.90;;
13566;SDS011;6855;48.112;11.298;2023-02-28T15:19:05;11.13;;;7.20;;
13566;SDS011;6855;48.112;11.298;2023-02-28T15:21:45;12.50;;;8.37;;
13566;SDS011;6855;48.112;11.298;2023-02-28T15:24:37;10.60;;;6.70;;
13566;SDS011;6855;48.112;11.298;2023-02-28T15:27:11;12.17;;;7.80;;